aviador You're here:

LFTH Decoded Metar

HYERES in FRANCE
Report Time2017-10-22 06:30:00
UTC Time2017-10-22 06:36:53
Flight Rules vfr VFR
Wind300° at 16 kt
W.Decomp.*RWY 31: 15.7 kt HW 3.1 kt LCW
RWY 23: 5.7 kt HW 14.9 kt RCW
W.Rank300° ranks 6
Current wind is above 300° avg. (8.7)
Visibility9999 m
Phenomena:N/A
Clouds:N/A
Expected CloudBase > 5,600 ft AGL from Temp-Dew spread
CeilingNone
Temp18°C (ISA +3)
Dew Point04°C (40% RH)
AAT11.0°C
QNH1018 hPa
Density Alt312 ft
Elevation13 ft
Report Wrong Elevation
Raw Report
METAR LFTH 220630Z AUTO 30016KT 270V340 CAVOK 18/04 Q1018 BECMG
30020G30KT=

Extra information for LFTH:More info

Metar Taf Metar & Taf Last 4 Metars F.Rules Stats Wind Profile Meteogram Temp Stats Airport Information Weather charts Add Link Nearby VenuesMetar ALERT Operation Metar Decoded Social comments